sensor_id;sensor_type;location;lat;lon;timestamp;temperature;humidity
10692;DHT22;5396;50.950;6.988;2023-02-15T00:01:18;3.10;99.90
10692;DHT22;5396;50.950;6.988;2023-02-15T00:03:43;3.10;99.90
10692;DHT22;5396;50.950;6.988;2023-02-15T00:06:09;3.20;99.90
10692;DHT22;5396;50.950;6.988;2023-02-15T00:08:34;3.10;99.90
10692;DHT22;5396;50.950;6.988;2023-02-15T00:11:05;3.00;99.90
10692;DHT22;5396;50.950;6.988;2023-02-15T00:13:30;3.00;99.90
10692;DHT22;5396;50.950;6.988;2023-02-15T00:16:07;3.00;99.90
10692;DHT22;5396;50.950;6.988;2023-02-15T00:18:33;3.00;99.90
10692;DHT22;5396;50.950;6.988;2023-02-15T00:21:04;3.00;99.90
10692;DHT22;5396;50.950;6.988;2023-02-15T00:23:30;3.00;99.90
10692;DHT22;5396;50.950;6.988;2023-02-15T00:26:07;3.00;99.90
10692;DHT22;5396;50.950;6.988;2023-02-15T00:28:33;3.00;99.90
10692;DHT22;5396;50.950;6.988;2023-02-15T00:31:17;2.90;99.90
10692;DHT22;5396;50.950;6.988;2023-02-15T00:33:42;3.00;99.90
10692;DHT22;5396;50.950;6.988;2023-02-15T00:36:09;3.00;99.90
10692;DHT22;5396;50.950;6.988;2023-02-15T00:38:35;2.90;99.90
10692;DHT22;5396;50.950;6.988;2023-02-15T00:41:04;2.80;99.90
10692;DHT22;5396;50.950;6.988;2023-02-15T00:43:32;2.70;99.90
10692;DHT22;5396;50.950;6.988;2023-02-15T00:45:58;2.70;99.90
10692;DHT22;5396;50.950;6.988;2023-02-15T00:48:24;2.70;99.90
10692;DHT22;5396;50.950;6.988;2023-02-15T00:50:52;2.70;99.90
10692;DHT22;5396;50.950;6.988;2023-02-15T00:53:18;2.70;99.90
10692;DHT22;5396;50.950;6.988;2023-02-15T00:55:44;2.70;99.90
10692;DHT22;5396;50.950;6.988;2023-02-15T00:58:10;2.70;99.90
10692;DHT22;5396;50.950;6.988;2023-02-15T01:00:36;2.70;99.90
10692;DHT22;5396;50.950;6.988;2023-02-15T01:03:03;2.70;99.90
10692;DHT22;5396;50.950;6.988;2023-02-15T01:05:30;2.70;99.90
10692;DHT22;5396;50.950;6.988;2023-02-15T01:07:57;2.70;99.90
10692;DHT22;5396;50.950;6.988;2023-02-15T01:10:23;2.70;99.90
10692;DHT22;5396;50.950;6.988;2023-02-15T01:12:50;2.60;99.90
10692;DHT22;5396;50.950;6.988;2023-02-15T01:15:16;2.60;99.90
10692;DHT22;5396;50.950;6.988;2023-02-15T01:17:41;2.60;99.90
10692;DHT22;5396;50.950;6.988;2023-02-15T01:20:09;2.50;99.90
10692;DHT22;5396;50.950;6.988;2023-02-15T01:22:35;2.60;99.90
10692;DHT22;5396;50.950;6.988;2023-02-15T01:25:01;2.60;99.90
10692;DHT22;5396;50.950;6.988;2023-02-15T01:27:26;2.60;99.90
10692;DHT22;5396;50.950;6.988;2023-02-15T01:29:52;2.60;99.90
10692;DHT22;5396;50.950;6.988;2023-02-15T01:32:17;2.50;99.90
10692;DHT22;5396;50.950;6.988;2023-02-15T01:34:43;2.50;99.90
10692;DHT22;5396;50.950;6.988;2023-02-15T01:37:08;2.50;99.90
10692;DHT22;5396;50.950;6.988;2023-02-15T01:39:34;2.50;99.90
10692;DHT22;5396;50.950;6.988;2023-02-15T01:41:59;2.50;99.90
10692;DHT22;5396;50.950;6.988;2023-02-15T01:44:51;2.50;99.90
10692;DHT22;5396;50.950;6.988;2023-02-15T01:47:42;2.50;99.90
10692;DHT22;5396;50.950;6.988;2023-02-15T01:50:27;2.50;99.90
10692;DHT22;5396;50.950;6.988;2023-02-15T01:53:20;2.50;99.90
10692;DHT22;5396;50.950;6.988;2023-02-15T01:58:15;2.50;99.90
10692;DHT22;5396;50.950;6.988;2023-02-15T02:00:41;2.50;99.90
10692;DHT22;5396;50.950;6.988;2023-02-15T02:03:07;2.50;99.90
10692;DHT22;5396;50.950;6.988;2023-02-15T02:05:33;2.50;99.90
10692;DHT22;5396;50.950;6.988;2023-02-15T02:08:01;2.50;99.90
10692;DHT22;5396;50.950;6.988;2023-02-15T02:10:28;2.40;99.90
10692;DHT22;5396;50.950;6.988;2023-02-15T02:12:59;2.40;99.90
10692;DHT22;5396;50.950;6.988;2023-02-15T02:15:53;2.30;99.90
10692;DHT22;5396;50.950;6.988;2023-02-15T02:27:48;2.30;99.90
10692;DHT22;5396;50.950;6.988;2023-02-15T02:35:55;2.30;99.90
10692;DHT22;5396;50.950;6.988;2023-02-15T02:41:33;2.10;99.90
10692;DHT22;5396;50.950;6.988;2023-02-15T02:44:16;2.10;99.90
10692;DHT22;5396;50.950;6.988;2023-02-15T02:47:06;2.10;99.90
10692;DHT22;5396;50.950;6.988;2023-02-15T02:49:41;2.10;99.90
10692;DHT22;5396;50.950;6.988;2023-02-15T02:52:34;2.00;99.90
10692;DHT22;5396;50.950;6.988;2023-02-15T02:55:06;2.00;99.90
10692;DHT22;5396;50.950;6.988;2023-02-15T02:57:34;2.00;99.90
10692;DHT22;5396;50.950;6.988;2023-02-15T03:00:03;2.00;99.90
10692;DHT22;5396;50.950;6.988;2023-02-15T03:02:37;2.10;99.90
10692;DHT22;5396;50.950;6.988;2023-02-15T03:05:06;2.20;99.90
10692;DHT22;5396;50.950;6.988;2023-02-15T03:07:35;2.10;99.90
10692;DHT22;5396;50.950;6.988;2023-02-15T03:10:04;2.10;99.90
10692;DHT22;5396;50.950;6.988;2023-02-15T03:12:37;2.00;99.90
10692;DHT22;5396;50.950;6.988;2023-02-15T03:15:12;2.00;99.90
10692;DHT22;5396;50.950;6.988;2023-02-15T03:17:45;2.00;99.90
10692;DHT22;5396;50.950;6.988;2023-02-15T03:20:38;2.00;99.90
10692;DHT22;5396;50.950;6.988;2023-02-15T03:23:06;2.00;99.90
10692;DHT22;5396;50.950;6.988;2023-02-15T03:25:50;1.90;99.90
10692;DHT22;5396;50.950;6.988;2023-02-15T03:28:23;1.90;99.90
10692;DHT22;5396;50.950;6.988;2023-02-15T03:30:53;1.90;99.90
10692;DHT22;5396;50.950;6.988;2023-02-15T03:33:22;1.80;99.90
10692;DHT22;5396;50.950;6.988;2023-02-15T03:36:17;1.90;99.90
10692;DHT22;5396;50.950;6.988;2023-02-15T03:39:08;1.90;99.90
10692;DHT22;5396;50.950;6.988;2023-02-15T03:41:40;1.90;99.90
10692;DHT22;5396;50.950;6.988;2023-02-15T03:44:24;1.90;99.90
10692;DHT22;5396;50.950;6.988;2023-02-15T03:49:29;1.90;99.90
10692;DHT22;5396;50.950;6.988;2023-02-15T03:51:57;1.80;99.90
10692;DHT22;5396;50.950;6.988;2023-02-15T03:54:34;1.80;99.90
10692;DHT22;5396;50.950;6.988;2023-02-15T03:57:16;1.70;99.90
10692;DHT22;5396;50.950;6.988;2023-02-15T04:00:04;1.70;99.90
10692;DHT22;5396;50.950;6.988;2023-02-15T04:02:58;1.70;99.90
10692;DHT22;5396;50.950;6.988;2023-02-15T04:05:26;1.70;99.90
10692;DHT22;5396;50.950;6.988;2023-02-15T04:07:51;1.60;99.90
10692;DHT22;5396;50.950;6.988;2023-02-15T04:10:17;1.60;99.90
10692;DHT22;5396;50.950;6.988;2023-02-15T04:13:01;1.60;99.90
10692;DHT22;5396;50.950;6.988;2023-02-15T04:15:26;1.50;99.90
10692;DHT22;5396;50.950;6.988;2023-02-15T04:18:11;1.60;99.90
10692;DHT22;5396;50.950;6.988;2023-02-15T04:20:36;1.60;99.90
10692;DHT22;5396;50.950;6.988;2023-02-15T04:23:20;1.70;99.90
10692;DHT22;5396;50.950;6.988;2023-02-15T04:26:04;1.70;99.90
10692;DHT22;5396;50.950;6.988;2023-02-15T04:28:30;1.70;99.90
10692;DHT22;5396;50.950;6.988;2023-02-15T04:30:56;1.70;99.90
10692;DHT22;5396;50.950;6.988;2023-02-15T04:33:22;1.70;99.90
10692;DHT22;5396;50.950;6.988;2023-02-15T04:35:47;1.70;99.90
10692;DHT22;5396;50.950;6.988;2023-02-15T04:38:14;1.60;99.90
10692;DHT22;5396;50.950;6.988;2023-02-15T04:40:40;1.60;99.90
10692;DHT22;5396;50.950;6.988;2023-02-15T04:43:05;1.60;99.90
10692;DHT22;5396;50.950;6.988;2023-02-15T04:45:31;1.60;99.90
10692;DHT22;5396;50.950;6.988;2023-02-15T04:47:56;1.50;99.90
10692;DHT22;5396;50.950;6.988;2023-02-15T04:50:22;1.50;99.90
10692;DHT22;5396;50.950;6.988;2023-02-15T04:52:47;1.40;99.90
10692;DHT22;5396;50.950;6.988;2023-02-15T04:55:13;1.40;99.90
10692;DHT22;5396;50.950;6.988;2023-02-15T04:57:39;1.40;99.90
10692;DHT22;5396;50.950;6.988;2023-02-15T05:00:05;1.30;99.90
10692;DHT22;5396;50.950;6.988;2023-02-15T05:02:31;1.30;99.90
10692;DHT22;5396;50.950;6.988;2023-02-15T05:04:57;1.30;99.90
10692;DHT22;5396;50.950;6.988;2023-02-15T05:07:23;1.30;99.90
10692;DHT22;5396;50.950;6.988;2023-02-15T05:09:49;1.30;99.90
10692;DHT22;5396;50.950;6.988;2023-02-15T05:12:15;1.40;99.90
10692;DHT22;5396;50.950;6.988;2023-02-15T05:14:40;1.50;99.90
10692;DHT22;5396;50.950;6.988;2023-02-15T05:17:06;1.40;99.90
10692;DHT22;5396;50.950;6.988;2023-02-15T05:19:31;1.50;99.90
10692;DHT22;5396;50.950;6.988;2023-02-15T05:21:57;1.50;99.90
10692;DHT22;5396;50.950;6.988;2023-02-15T05:24:23;1.50;99.90
10692;DHT22;5396;50.950;6.988;2023-02-15T05:27:10;1.50;99.90
10692;DHT22;5396;50.950;6.988;2023-02-15T05:29:54;1.40;99.90
10692;DHT22;5396;50.950;6.988;2023-02-15T05:32:20;1.40;99.90
10692;DHT22;5396;50.950;6.988;2023-02-15T05:34:46;1.40;99.90
10692;DHT22;5396;50.950;6.988;2023-02-15T05:37:11;1.30;99.90
10692;DHT22;5396;50.950;6.988;2023-02-15T05:39:37;1.30;99.90
10692;DHT22;5396;50.950;6.988;2023-02-15T05:42:02;1.30;99.90
10692;DHT22;5396;50.950;6.988;2023-02-15T05:44:28;1.30;99.90
10692;DHT22;5396;50.950;6.988;2023-02-15T05:46:53;1.20;99.90
10692;DHT22;5396;50.950;6.988;2023-02-15T05:49:19;1.20;99.90
10692;DHT22;5396;50.950;6.988;2023-02-15T05:51:45;1.20;99.90
10692;DHT22;5396;50.950;6.988;2023-02-15T05:54:10;1.30;99.90
10692;DHT22;5396;50.950;6.988;2023-02-15T05:56:36;1.40;99.90
10692;DHT22;5396;50.950;6.988;2023-02-15T05:59:01;1.40;99.90
10692;DHT22;5396;50.950;6.988;2023-02-15T06:01:27;1.40;99.90
10692;DHT22;5396;50.950;6.988;2023-02-15T06:03:52;1.30;99.90
10692;DHT22;5396;50.950;6.988;2023-02-15T06:06:19;1.30;99.90
10692;DHT22;5396;50.950;6.988;2023-02-15T06:08:44;1.20;99.90
10692;DHT22;5396;50.950;6.988;2023-02-15T06:11:10;1.30;99.90
10692;DHT22;5396;50.950;6.988;2023-02-15T06:13:36;1.30;99.90
10692;DHT22;5396;50.950;6.988;2023-02-15T06:16:01;1.30;99.90
10692;DHT22;5396;50.950;6.988;2023-02-15T06:18:27;1.20;99.90
10692;DHT22;5396;50.950;6.988;2023-02-15T06:20:52;1.20;99.90
10692;DHT22;5396;50.950;6.988;2023-02-15T06:23:18;1.10;99.90
10692;DHT22;5396;50.950;6.988;2023-02-15T06:25:45;1.10;99.90
10692;DHT22;5396;50.950;6.988;2023-02-15T06:28:11;1.20;99.90
10692;DHT22;5396;50.950;6.988;2023-02-15T06:30:36;1.10;99.90
10692;DHT22;5396;50.950;6.988;2023-02-15T06:33:02;1.20;99.90
10692;DHT22;5396;50.950;6.988;2023-02-15T06:35:28;1.20;99.90
10692;DHT22;5396;50.950;6.988;2023-02-15T06:37:53;1.20;99.90
10692;DHT22;5396;50.950;6.988;2023-02-15T06:40:19;1.10;99.90
10692;DHT22;5396;50.950;6.988;2023-02-15T06:42:45;1.20;99.90
10692;DHT22;5396;50.950;6.988;2023-02-15T06:45:11;1.20;99.90
10692;DHT22;5396;50.950;6.988;2023-02-15T06:47:37;1.10;99.90
10692;DHT22;5396;50.950;6.988;2023-02-15T06:50:04;1.20;99.90
10692;DHT22;5396;50.950;6.988;2023-02-15T06:52:30;1.20;99.90
10692;DHT22;5396;50.950;6.988;2023-02-15T06:54:56;1.20;99.90
10692;DHT22;5396;50.950;6.988;2023-02-15T06:57:21;1.20;99.90
10692;DHT22;5396;50.950;6.988;2023-02-15T06:59:47;1.20;99.90
10692;DHT22;5396;50.950;6.988;2023-02-15T07:02:13;1.20;99.90
10692;DHT22;5396;50.950;6.988;2023-02-15T07:04:38;1.10;99.90
10692;DHT22;5396;50.950;6.988;2023-02-15T07:07:08;1.10;99.90
10692;DHT22;5396;50.950;6.988;2023-02-15T07:09:34;1.20;99.90
10692;DHT22;5396;50.950;6.988;2023-02-15T07:12:00;1.30;99.90
10692;DHT22;5396;50.950;6.988;2023-02-15T07:14:44;1.30;99.90
10692;DHT22;5396;50.950;6.988;2023-02-15T07:17:09;1.30;99.90
10692;DHT22;5396;50.950;6.988;2023-02-15T07:19:35;1.30;99.90
10692;DHT22;5396;50.950;6.988;2023-02-15T07:22:01;1.40;99.90
10692;DHT22;5396;50.950;6.988;2023-02-15T07:24:29;1.40;99.90
10692;DHT22;5396;50.950;6.988;2023-02-15T07:26:54;1.40;99.90
10692;DHT22;5396;50.950;6.988;2023-02-15T07:29:20;1.40;99.90
10692;DHT22;5396;50.950;6.988;2023-02-15T07:31:45;1.40;99.90
10692;DHT22;5396;50.950;6.988;2023-02-15T07:34:12;1.50;99.90
10692;DHT22;5396;50.950;6.988;2023-02-15T07:36:37;1.40;99.90
10692;DHT22;5396;50.950;6.988;2023-02-15T07:39:03;1.40;99.90
10692;DHT22;5396;50.950;6.988;2023-02-15T07:41:29;1.40;99.90
10692;DHT22;5396;50.950;6.988;2023-02-15T07:43:54;1.50;99.90
10692;DHT22;5396;50.950;6.988;2023-02-15T07:46:20;1.60;99.90
10692;DHT22;5396;50.950;6.988;2023-02-15T07:48:46;1.60;99.90
10692;DHT22;5396;50.950;6.988;2023-02-15T07:51:13;1.70;99.90
10692;DHT22;5396;50.950;6.988;2023-02-15T07:53:39;1.70;99.90
10692;DHT22;5396;50.950;6.988;2023-02-15T07:56:09;1.80;99.90
10692;DHT22;5396;50.950;6.988;2023-02-15T07:58:35;1.70;99.90
10692;DHT22;5396;50.950;6.988;2023-02-15T08:01:16;1.80;99.90
10692;DHT22;5396;50.950;6.988;2023-02-15T08:03:42;1.80;99.90
10692;DHT22;5396;50.950;6.988;2023-02-15T08:06:08;1.80;99.90
10692;DHT22;5396;50.950;6.988;2023-02-15T08:08:35;1.90;99.90
10692;DHT22;5396;50.950;6.988;2023-02-15T08:11:05;1.90;99.90
10692;DHT22;5396;50.950;6.988;2023-02-15T08:14:09;2.00;99.90
10692;DHT22;5396;50.950;6.988;2023-02-15T08:19:20;2.20;99.90
10692;DHT22;5396;50.950;6.988;2023-02-15T08:21:51;2.30;99.90
10692;DHT22;5396;50.950;6.988;2023-02-15T08:24:20;2.20;99.90
10692;DHT22;5396;50.950;6.988;2023-02-15T08:26:46;2.30;99.90
10692;DHT22;5396;50.950;6.988;2023-02-15T08:29:14;2.30;99.90
10692;DHT22;5396;50.950;6.988;2023-02-15T08:31:40;2.40;99.90
10692;DHT22;5396;50.950;6.988;2023-02-15T08:34:10;2.40;99.90
10692;DHT22;5396;50.950;6.988;2023-02-15T08:36:36;2.50;99.90
10692;DHT22;5396;50.950;6.988;2023-02-15T08:39:04;2.50;99.90
10692;DHT22;5396;50.950;6.988;2023-02-15T08:41:32;2.50;99.90
10692;DHT22;5396;50.950;6.988;2023-02-15T08:44:01;2.60;99.90
10692;DHT22;5396;50.950;6.988;2023-02-15T08:46:29;2.70;99.90
10692;DHT22;5396;50.950;6.988;2023-02-15T08:48:55;2.70;99.90
10692;DHT22;5396;50.950;6.988;2023-02-15T08:51:26;2.80;99.90
10692;DHT22;5396;50.950;6.988;2023-02-15T08:53:57;2.90;99.90
10692;DHT22;5396;50.950;6.988;2023-02-15T08:56:25;3.00;99.90
10692;DHT22;5396;50.950;6.988;2023-02-15T08:58:52;3.00;99.90
10692;DHT22;5396;50.950;6.988;2023-02-15T09:01:21;3.10;99.90
10692;DHT22;5396;50.950;6.988;2023-02-15T09:03:48;3.20;99.90
10692;DHT22;5396;50.950;6.988;2023-02-15T09:06:16;3.30;99.90
10692;DHT22;5396;50.950;6.988;2023-02-15T09:08:42;3.30;99.90
10692;DHT22;5396;50.950;6.988;2023-02-15T09:11:17;3.40;99.90
10692;DHT22;5396;50.950;6.988;2023-02-15T09:13:49;3.50;99.90
10692;DHT22;5396;50.950;6.988;2023-02-15T09:16:15;3.60;99.90
10692;DHT22;5396;50.950;6.988;2023-02-15T09:18:44;3.70;99.90
10692;DHT22;5396;50.950;6.988;2023-02-15T09:21:20;3.70;99.90
10692;DHT22;5396;50.950;6.988;2023-02-15T09:23:48;3.90;99.90
10692;DHT22;5396;50.950;6.988;2023-02-15T09:26:17;4.00;99.90
10692;DHT22;5396;50.950;6.988;2023-02-15T09:28:42;4.10;99.90
10692;DHT22;5396;50.950;6.988;2023-02-15T09:31:11;4.10;99.90
10692;DHT22;5396;50.950;6.988;2023-02-15T09:33:38;4.20;99.90
10692;DHT22;5396;50.950;6.988;2023-02-15T09:36:05;4.30;99.90
10692;DHT22;5396;50.950;6.988;2023-02-15T09:38:31;4.40;99.90
10692;DHT22;5396;50.950;6.988;2023-02-15T09:41:27;4.40;99.90
10692;DHT22;5396;50.950;6.988;2023-02-15T09:44:14;4.50;99.90
10692;DHT22;5396;50.950;6.988;2023-02-15T09:49:54;4.60;99.90
10692;DHT22;5396;50.950;6.988;2023-02-15T09:55:21;4.80;99.90
10692;DHT22;5396;50.950;6.988;2023-02-15T10:00:54;5.00;99.90
10692;DHT22;5396;50.950;6.988;2023-02-15T10:03:32;5.10;99.90
10692;DHT22;5396;50.950;6.988;2023-02-15T10:08:55;5.30;99.90
10692;DHT22;5396;50.950;6.988;2023-02-15T10:22:29;5.70;99.90
10692;DHT22;5396;50.950;6.988;2023-02-15T10:27:46;5.90;99.90
10692;DHT22;5396;50.950;6.988;2023-02-15T10:30:14;6.00;99.90
10692;DHT22;5396;50.950;6.988;2023-02-15T10:32:53;6.20;99.90
10692;DHT22;5396;50.950;6.988;2023-02-15T10:35:58;6.30;99.90
10692;DHT22;5396;50.950;6.988;2023-02-15T10:38:39;6.40;99.90
10692;DHT22;5396;50.950;6.988;2023-02-15T10:41:25;6.50;99.90
10692;DHT22;5396;50.950;6.988;2023-02-15T10:58:29;6.90;99.90
10692;DHT22;5396;50.950;6.988;2023-02-15T11:01:18;7.00;99.90
10692;DHT22;5396;50.950;6.988;2023-02-15T11:06:34;7.10;99.90
10692;DHT22;5396;50.950;6.988;2023-02-15T11:09:09;7.20;99.90
10692;DHT22;5396;50.950;6.988;2023-02-15T11:11:37;7.20;99.90
10692;DHT22;5396;50.950;6.988;2023-02-15T11:14:23;7.20;99.90
10692;DHT22;5396;50.950;6.988;2023-02-15T11:16:57;7.20;99.90
10692;DHT22;5396;50.950;6.988;2023-02-15T11:19:30;7.30;99.90
10692;DHT22;5396;50.950;6.988;2023-02-15T11:22:05;7.40;99.90
10692;DHT22;5396;50.950;6.988;2023-02-15T11:24:42;7.60;99.90
10692;DHT22;5396;50.950;6.988;2023-02-15T11:27:30;7.60;99.90
10692;DHT22;5396;50.950;6.988;2023-02-15T11:30:01;7.80;99.90
10692;DHT22;5396;50.950;6.988;2023-02-15T11:32:39;8.00;99.90
10692;DHT22;5396;50.950;6.988;2023-02-15T11:37:53;8.20;99.90
10692;DHT22;5396;50.950;6.988;2023-02-15T11:40:30;8.40;99.90
10692;DHT22;5396;50.950;6.988;2023-02-15T11:43:06;8.50;99.90
10692;DHT22;5396;50.950;6.988;2023-02-15T11:45:36;8.60;99.90
10692;DHT22;5396;50.950;6.988;2023-02-15T11:48:11;8.80;99.90
10692;DHT22;5396;50.950;6.988;2023-02-15T11:50:38;8.80;99.90
10692;DHT22;5396;50.950;6.988;2023-02-15T11:53:15;8.80;99.90
10692;DHT22;5396;50.950;6.988;2023-02-15T11:55:46;8.90;99.90
10692;DHT22;5396;50.950;6.988;2023-02-15T12:01:11;9.10;99.90
10692;DHT22;5396;50.950;6.988;2023-02-15T12:04:04;9.20;99.90
10692;DHT22;5396;50.950;6.988;2023-02-15T12:06:34;9.40;99.90
10692;DHT22;5396;50.950;6.988;2023-02-15T12:09:17;9.50;99.90
10692;DHT22;5396;50.950;6.988;2023-02-15T12:11:44;9.60;99.90
10692;DHT22;5396;50.950;6.988;2023-02-15T12:14:13;9.70;99.90
10692;DHT22;5396;50.950;6.988;2023-02-15T12:16:43;9.80;99.90
10692;DHT22;5396;50.950;6.988;2023-02-15T12:19:33;9.90;99.90
10692;DHT22;5396;50.950;6.988;2023-02-15T12:22:04;10.00;99.90
10692;DHT22;5396;50.950;6.988;2023-02-15T12:24:34;10.10;99.90
10692;DHT22;5396;50.950;6.988;2023-02-15T12:27:02;10.20;99.90
10692;DHT22;5396;50.950;6.988;2023-02-15T12:29:34;10.30;99.90
10692;DHT22;5396;50.950;6.988;2023-02-15T12:32:01;10.40;99.90
10692;DHT22;5396;50.950;6.988;2023-02-15T12:34:31;10.40;99.90
10692;DHT22;5396;50.950;6.988;2023-02-15T12:37:01;10.50;99.90
10692;DHT22;5396;50.950;6.988;2023-02-15T12:39:28;10.60;99.90
10692;DHT22;5396;50.950;6.988;2023-02-15T12:44:29;10.60;99.90
10692;DHT22;5396;50.950;6.988;2023-02-15T12:49:28;10.70;99.90
10692;DHT22;5396;50.950;6.988;2023-02-15T12:51:56;10.70;99.90
10692;DHT22;5396;50.950;6.988;2023-02-15T12:54:41;10.90;99.90
10692;DHT22;5396;50.950;6.988;2023-02-15T12:57:28;10.90;99.90
10692;DHT22;5396;50.950;6.988;2023-02-15T12:59:59;10.90;99.90
10692;DHT22;5396;50.950;6.988;2023-02-15T13:02:42;11.10;99.90
10692;DHT22;5396;50.950;6.988;2023-02-15T13:05:26;11.10;99.90
10692;DHT22;5396;50.950;6.988;2023-02-15T13:07:57;11.20;99.90
10692;DHT22;5396;50.950;6.988;2023-02-15T13:10:30;11.20;99.90
10692;DHT22;5396;50.950;6.988;2023-02-15T13:12:57;11.40;99.90
10692;DHT22;5396;50.950;6.988;2023-02-15T13:15:35;11.50;99.90
10692;DHT22;5396;50.950;6.988;2023-02-15T13:18:03;11.50;99.90
10692;DHT22;5396;50.950;6.988;2023-02-15T13:20:30;11.50;99.90
10692;DHT22;5396;50.950;6.988;2023-02-15T13:23:00;11.60;99.90
10692;DHT22;5396;50.950;6.988;2023-02-15T13:25:30;11.60;99.90
10692;DHT22;5396;50.950;6.988;2023-02-15T13:28:01;11.70;99.90
10692;DHT22;5396;50.950;6.988;2023-02-15T13:30:36;11.80;99.90
10692;DHT22;5396;50.950;6.988;2023-02-15T13:33:13;11.80;99.90
10692;DHT22;5396;50.950;6.988;2023-02-15T13:35:50;11.90;99.90
10692;DHT22;5396;50.950;6.988;2023-02-15T13:38:43;12.00;99.90
10692;DHT22;5396;50.950;6.988;2023-02-15T13:41:16;12.10;99.90
10692;DHT22;5396;50.950;6.988;2023-02-15T13:46:39;12.70;99.90
10692;DHT22;5396;50.950;6.988;2023-02-15T13:52:17;15.90;99.90
10692;DHT22;5396;50.950;6.988;2023-02-15T13:55:08;16.70;99.90
10692;DHT22;5396;50.950;6.988;2023-02-15T14:03:14;19.00;99.90
10692;DHT22;5396;50.950;6.988;2023-02-15T14:08:28;18.70;99.90
10692;DHT22;5396;50.950;6.988;2023-02-15T14:11:12;19.20;99.90
10692;DHT22;5396;50.950;6.988;2023-02-15T14:14:21;19.40;99.90
10692;DHT22;5396;50.950;6.988;2023-02-15T14:17:11;20.20;99.90
10692;DHT22;5396;50.950;6.988;2023-02-15T14:19:57;19.80;99.90
10692;DHT22;5396;50.950;6.988;2023-02-15T14:25:33;19.80;99.90
10692;DHT22;5396;50.950;6.988;2023-02-15T14:28:11;20.40;99.90
10692;DHT22;5396;50.950;6.988;2023-02-15T14:30:42;21.30;99.90
10692;DHT22;5396;50.950;6.988;2023-02-15T14:35:47;20.80;99.90
10692;DHT22;5396;50.950;6.988;2023-02-15T14:41:09;19.70;99.90
10692;DHT22;5396;50.950;6.988;2023-02-15T14:48:55;18.30;99.90
10692;DHT22;5396;50.950;6.988;2023-02-15T14:54:08;17.30;99.90
10692;DHT22;5396;50.950;6.988;2023-02-15T14:56:34;16.80;99.90
10692;DHT22;5396;50.950;6.988;2023-02-15T14:59:20;16.30;99.90
10692;DHT22;5396;50.950;6.988;2023-02-15T15:02:09;15.70;99.90
10692;DHT22;5396;50.950;6.988;2023-02-15T15:05:06;15.00;99.90
10692;DHT22;5396;50.950;6.988;2023-02-15T15:07:55;14.70;99.90
10692;DHT22;5396;50.950;6.988;2023-02-15T15:12:52;14.30;99.90
10692;DHT22;5396;50.950;6.988;2023-02-15T15:25:57;13.10;99.90
10692;DHT22;5396;50.950;6.988;2023-02-15T15:31:04;12.90;99.90
10692;DHT22;5396;50.950;6.988;2023-02-15T15:50:41;11.50;99.90
10692;DHT22;5396;50.950;6.988;2023-02-15T15:53:18;11.30;99.90
10692;DHT22;5396;50.950;6.988;2023-02-15T15:55:47;11.20;99.90
10692;DHT22;5396;50.950;6.988;2023-02-15T15:58:17;11.10;99.90
10692;DHT22;5396;50.950;6.988;2023-02-15T16:00:54;11.00;99.90
10692;DHT22;5396;50.950;6.988;2023-02-15T16:03:24;10.90;99.90
10692;DHT22;5396;50.950;6.988;2023-02-15T16:05:50;10.90;99.90
10692;DHT22;5396;50.950;6.988;2023-02-15T16:08:37;10.80;99.90
10692;DHT22;5396;50.950;6.988;2023-02-15T16:11:15;10.70;99.90
10692;DHT22;5396;50.950;6.988;2023-02-15T16:13:42;10.60;99.90
10692;DHT22;5396;50.950;6.988;2023-02-15T16:16:08;10.50;99.90
10692;DHT22;5396;50.950;6.988;2023-02-15T16:18:37;10.40;99.90
10692;DHT22;5396;50.950;6.988;2023-02-15T16:21:04;10.30;99.90
10692;DHT22;5396;50.950;6.988;2023-02-15T16:28:53;10.00;99.90
10692;DHT22;5396;50.950;6.988;2023-02-15T16:31:20;9.90;99.90
10692;DHT22;5396;50.950;6.988;2023-02-15T16:33:47;9.90;99.90
10692;DHT22;5396;50.950;6.988;2023-02-15T16:36:21;9.70;99.90
10692;DHT22;5396;50.950;6.988;2023-02-15T16:41:27;9.50;99.90
10692;DHT22;5396;50.950;6.988;2023-02-15T16:43:55;9.50;99.90
10692;DHT22;5396;50.950;6.988;2023-02-15T16:46:28;9.40;99.90
10692;DHT22;5396;50.950;6.988;2023-02-15T16:48:58;9.40;99.90
10692;DHT22;5396;50.950;6.988;2023-02-15T16:51:29;9.30;99.90
10692;DHT22;5396;50.950;6.988;2023-02-15T16:53:57;9.30;99.90
10692;DHT22;5396;50.950;6.988;2023-02-15T16:56:27;9.20;99.90
10692;DHT22;5396;50.950;6.988;2023-02-15T16:58:56;9.20;99.90
10692;DHT22;5396;50.950;6.988;2023-02-15T17:01:24;9.10;99.90
10692;DHT22;5396;50.950;6.988;2023-02-15T17:07:15;9.00;99.90
10692;DHT22;5396;50.950;6.988;2023-02-15T17:09:52;9.00;99.90
10692;DHT22;5396;50.950;6.988;2023-02-15T17:12:44;8.90;99.90
10692;DHT22;5396;50.950;6.988;2023-02-15T17:15:39;9.00;99.90
10692;DHT22;5396;50.950;6.988;2023-02-15T17:18:11;9.00;99.90
10692;DHT22;5396;50.950;6.988;2023-02-15T17:20:40;9.00;99.90
10692;DHT22;5396;50.950;6.988;2023-02-15T17:23:25;8.90;99.90
10692;DHT22;5396;50.950;6.988;2023-02-15T17:25:53;8.80;99.90
10692;DHT22;5396;50.950;6.988;2023-02-15T17:28:21;8.80;99.90
10692;DHT22;5396;50.950;6.988;2023-02-15T17:30:49;8.80;99.90
10692;DHT22;5396;50.950;6.988;2023-02-15T17:33:42;8.70;99.90
10692;DHT22;5396;50.950;6.988;2023-02-15T17:36:19;8.60;99.90
10692;DHT22;5396;50.950;6.988;2023-02-15T17:39:19;8.60;99.90
10692;DHT22;5396;50.950;6.988;2023-02-15T17:41:44;8.50;99.90
10692;DHT22;5396;50.950;6.988;2023-02-15T17:44:12;8.50;99.90
10692;DHT22;5396;50.950;6.988;2023-02-15T17:46:41;8.50;99.90
10692;DHT22;5396;50.950;6.988;2023-02-15T17:49:10;8.50;99.90
10692;DHT22;5396;50.950;6.988;2023-02-15T17:51:39;8.50;99.90
10692;DHT22;5396;50.950;6.988;2023-02-15T17:54:04;8.40;99.90
10692;DHT22;5396;50.950;6.988;2023-02-15T17:56:48;8.40;99.90
10692;DHT22;5396;50.950;6.988;2023-02-15T17:59:14;8.30;99.90
10692;DHT22;5396;50.950;6.988;2023-02-15T18:01:45;8.30;99.90
10692;DHT22;5396;50.950;6.988;2023-02-15T18:04:31;8.20;99.90
10692;DHT22;5396;50.950;6.988;2023-02-15T18:07:18;8.10;99.90
10692;DHT22;5396;50.950;6.988;2023-02-15T18:10:17;8.00;99.90
10692;DHT22;5396;50.950;6.988;2023-02-15T18:13:02;8.00;99.90
10692;DHT22;5396;50.950;6.988;2023-02-15T18:15:27;8.00;99.90
10692;DHT22;5396;50.950;6.988;2023-02-15T18:17:54;7.90;99.90
10692;DHT22;5396;50.950;6.988;2023-02-15T18:20:25;7.90;99.90
10692;DHT22;5396;50.950;6.988;2023-02-15T18:22:53;7.80;99.90
10692;DHT22;5396;50.950;6.988;2023-02-15T18:25:21;7.80;99.90
10692;DHT22;5396;50.950;6.988;2023-02-15T18:27:48;7.80;99.90
10692;DHT22;5396;50.950;6.988;2023-02-15T18:30:19;7.80;99.90
10692;DHT22;5396;50.950;6.988;2023-02-15T18:32:46;7.80;99.90
10692;DHT22;5396;50.950;6.988;2023-02-15T18:35:19;7.80;99.90
10692;DHT22;5396;50.950;6.988;2023-02-15T18:37:49;7.90;99.90
10692;DHT22;5396;50.950;6.988;2023-02-15T18:40:29;7.90;99.90
10692;DHT22;5396;50.950;6.988;2023-02-15T18:42:55;7.90;99.90
10692;DHT22;5396;50.950;6.988;2023-02-15T18:45:27;7.80;99.90
10692;DHT22;5396;50.950;6.988;2023-02-15T18:47:56;7.90;99.90
10692;DHT22;5396;50.950;6.988;2023-02-15T18:50:24;7.80;99.90
10692;DHT22;5396;50.950;6.988;2023-02-15T18:52:51;7.80;99.90
10692;DHT22;5396;50.950;6.988;2023-02-15T18:55:27;7.70;99.90
10692;DHT22;5396;50.950;6.988;2023-02-15T18:57:55;7.70;99.90
10692;DHT22;5396;50.950;6.988;2023-02-15T19:00:32;7.70;99.90
10692;DHT22;5396;50.950;6.988;2023-02-15T19:02:58;7.70;99.90